createdAt,value
2017-10-31T00:02:27.390Z,13.88
2017-10-31T00:04:56.456Z,20.30
2017-10-31T00:07:25.677Z,15.40
2017-10-31T00:09:54.714Z,19.75
2017-10-31T00:12:23.903Z,15.45
2017-10-31T00:14:53.738Z,17.08
2017-10-31T00:17:23.749Z,21.00
2017-10-31T00:19:52.913Z,17.95
2017-10-31T00:22:22.149Z,18.98
2017-10-31T00:24:51.355Z,18.12
2017-10-31T00:27:21.397Z,19.92
2017-10-31T00:29:50.835Z,22.60
2017-10-31T00:32:20.790Z,16.35
2017-10-31T00:34:49.969Z,15.02
2017-10-31T00:37:19.306Z,13.73
2017-10-31T00:39:49.154Z,15.18
2017-10-31T00:42:19.049Z,21.80
2017-10-31T00:44:48.150Z,17.77
2017-10-31T00:47:18.510Z,16.05
2017-10-31T00:49:47.537Z,15.18
2017-10-31T00:53:36.788Z,16.20
2017-10-31T00:56:05.980Z,23.40
2017-10-31T00:58:36.219Z,16.62
2017-10-31T01:01:06.441Z,19.85
2017-10-31T01:03:35.530Z,18.50
2017-10-31T01:06:05.421Z,15.90
2017-10-31T01:08:34.489Z,13.88
2017-10-31T01:11:03.673Z,15.63
2017-10-31T01:13:32.678Z,18.98
2017-10-31T01:16:01.749Z,16.12
2017-10-31T01:18:30.881Z,15.70
2017-10-31T01:21:02.404Z,16.83
2017-10-31T01:23:32.362Z,17.50
2017-10-31T01:26:02.318Z,19.42
2017-10-31T01:28:31.432Z,19.25
2017-10-31T01:31:00.502Z,17.80
2017-10-31T01:33:29.577Z,16.48
2017-10-31T01:35:59.332Z,20.48
2017-10-31T01:38:28.583Z,16.87
2017-10-31T01:40:57.646Z,20.42
2017-10-31T01:43:28.290Z,18.20
2017-10-31T01:45:57.493Z,16.37
2017-10-31T01:48:27.424Z,20.62
2017-10-31T01:50:56.531Z,19.25
2017-10-31T01:53:25.638Z,19.83
2017-10-31T01:55:54.753Z,22.10
2017-10-31T01:58:24.090Z,19.30
2017-10-31T02:00:54.059Z,24.63
2017-10-31T02:03:23.288Z,23.05
2017-10-31T02:05:52.422Z,22.58
2017-10-31T02:08:21.529Z,27.30
2017-10-31T02:10:51.645Z,22.27
2017-10-31T02:13:20.698Z,22.52
2017-10-31T02:15:49.752Z,24.20
2017-10-31T02:18:18.868Z,27.62
2017-10-31T02:20:48.167Z,25.70
2017-10-31T02:23:17.777Z,25.52
2017-10-31T02:25:46.920Z,25.62
2017-10-31T02:28:16.165Z,24.63
2017-10-31T02:30:45.696Z,23.95
2017-10-31T02:33:15.397Z,22.17
2017-10-31T02:35:44.681Z,22.15
2017-10-31T02:38:14.934Z,24.35
2017-10-31T02:40:45.419Z,24.90
2017-10-31T02:43:14.597Z,21.23
2017-10-31T02:45:43.843Z,22.83
2017-10-31T02:48:12.988Z,24.20
2017-10-31T02:50:43.070Z,24.05
2017-10-31T02:53:13.177Z,20.00
2017-10-31T02:55:42.285Z,22.80
2017-10-31T02:58:12.208Z,26.37
2017-10-31T03:00:42.256Z,20.62
2017-10-31T03:03:11.395Z,21.92
2017-10-31T03:05:40.597Z,26.02
2017-10-31T03:08:09.823Z,20.95
2017-10-31T03:10:39.842Z,22.62
2017-10-31T03:13:09.713Z,24.12
2017-10-31T03:15:39.884Z,22.52
2017-10-31T03:18:09.083Z,29.15
2017-10-31T03:20:39.242Z,24.70
2017-10-31T03:23:08.519Z,24.58
2017-10-31T03:25:40.646Z,23.12
2017-10-31T03:28:10.982Z,27.65
2017-10-31T03:30:41.114Z,22.60
2017-10-31T03:33:10.405Z,25.67
2017-10-31T03:35:40.502Z,28.65
2017-10-31T03:38:09.723Z,29.60
2017-10-31T03:40:39.817Z,23.98
2017-10-31T03:43:10.089Z,27.40
2017-10-31T03:45:39.382Z,25.77
2017-10-31T03:48:08.745Z,20.98
2017-10-31T03:50:38.029Z,21.60
2017-10-31T03:53:07.233Z,22.48
2017-10-31T03:55:36.529Z,24.52
2017-10-31T03:58:05.869Z,24.65
2017-10-31T04:00:36.194Z,20.83
2017-10-31T04:03:06.602Z,25.00
2017-10-31T04:05:36.449Z,22.23
2017-10-31T04:08:05.612Z,22.37
2017-10-31T04:10:38.554Z,27.13
2017-10-31T04:13:07.841Z,26.17
2017-10-31T04:15:37.143Z,21.33
2017-10-31T04:18:06.389Z,24.37
2017-10-31T04:20:36.063Z,24.17
2017-10-31T04:23:05.244Z,27.80
2017-10-31T04:25:34.477Z,28.65
2017-10-31T04:28:04.431Z,25.12
2017-10-31T04:30:34.325Z,24.00
2017-10-31T04:33:03.617Z,25.55
2017-10-31T04:35:32.750Z,20.70
2017-10-31T04:38:01.848Z,26.08
2017-10-31T04:40:32.091Z,25.42
2017-10-31T04:43:01.164Z,25.33
2017-10-31T04:45:31.028Z,26.48
2017-10-31T04:48:00.128Z,28.08
2017-10-31T04:50:30.444Z,24.42
2017-10-31T04:52:59.582Z,32.42
2017-10-31T04:55:29.662Z,28.70
2017-10-31T04:57:58.897Z,20.08
2017-10-31T05:00:28.953Z,22.90
2017-10-31T05:02:58.016Z,23.73
2017-10-31T05:05:27.331Z,25.58
2017-10-31T05:07:56.391Z,23.20
2017-10-31T05:10:26.517Z,23.40
2017-10-31T05:12:55.603Z,21.90
2017-10-31T05:15:24.793Z,27.40
2017-10-31T05:17:54.233Z,26.48
2017-10-31T05:20:23.385Z,24.08
2017-10-31T05:22:52.509Z,24.60
2017-10-31T05:25:22.585Z,24.80
2017-10-31T05:27:51.766Z,21.65
2017-10-31T05:30:20.901Z,22.70
2017-10-31T05:32:51.067Z,20.30
2017-10-31T05:35:20.208Z,17.77
2017-10-31T05:37:49.299Z,20.62
2017-10-31T05:40:18.688Z,19.35
2017-10-31T05:42:49.398Z,23.05
2017-10-31T05:45:18.887Z,18.65
2017-10-31T05:47:48.036Z,24.08
2017-10-31T05:50:17.275Z,21.12
2017-10-31T05:52:46.262Z,17.27
2017-10-31T05:55:16.297Z,17.75
2017-10-31T05:57:45.426Z,21.50
2017-10-31T06:00:14.960Z,24.58
2017-10-31T06:02:45.030Z,23.02
2017-10-31T06:05:14.195Z,19.25
2017-10-31T06:07:44.017Z,23.92
2017-10-31T06:10:14.961Z,19.70
2017-10-31T06:12:43.999Z,22.95
2017-10-31T06:15:13.283Z,24.35
2017-10-31T06:17:42.345Z,19.00
2017-10-31T06:20:11.498Z,19.85
2017-10-31T06:22:44.727Z,21.08
2017-10-31T06:27:20.006Z,24.83
2017-10-31T06:31:54.972Z,16.23
2017-10-31T06:34:23.999Z,20.17
2017-10-31T06:36:53.266Z,25.17
2017-10-31T06:39:22.469Z,20.65
2017-10-31T06:41:51.449Z,18.67
2017-10-31T06:44:20.522Z,16.15
2017-10-31T06:46:49.581Z,17.35
2017-10-31T06:49:20.405Z,17.87
2017-10-31T06:51:49.455Z,15.75
2017-10-31T06:54:18.566Z,18.35
2017-10-31T06:56:47.905Z,17.62
2017-10-31T06:59:19.719Z,16.35
2017-10-31T07:01:48.917Z,15.88
2017-10-31T07:04:32.432Z,15.77
2017-10-31T07:07:01.429Z,15.18
2017-10-31T07:09:35.781Z,17.60
2017-10-31T07:12:04.822Z,15.55
2017-10-31T07:14:33.784Z,19.23
2017-10-31T07:17:02.890Z,15.55
2017-10-31T07:19:32.698Z,13.13
2017-10-31T07:22:02.596Z,16.83
2017-10-31T07:24:31.947Z,14.63
2017-10-31T07:27:03.765Z,14.57
2017-10-31T07:29:32.865Z,16.58
2017-10-31T07:32:02.719Z,11.77
2017-10-31T07:34:31.890Z,13.13
2017-10-31T07:37:01.860Z,15.77
2017-10-31T07:39:30.947Z,12.05
2017-10-31T07:42:00.616Z,12.75
2017-10-31T07:44:30.520Z,11.95
2017-10-31T07:47:00.335Z,12.70
2017-10-31T07:49:30.590Z,13.02
2017-10-31T07:52:00.477Z,14.63
2017-10-31T07:54:29.606Z,11.15
2017-10-31T07:56:58.724Z,11.12
2017-10-31T07:59:27.815Z,9.82
2017-10-31T08:01:56.859Z,9.82
2017-10-31T08:04:25.942Z,13.75
2017-10-31T08:06:55.902Z,9.07
2017-10-31T08:09:24.961Z,9.63
2017-10-31T08:11:54.215Z,9.15
2017-10-31T08:14:23.380Z,9.20
2017-10-31T08:16:52.417Z,8.32
2017-10-31T08:19:25.444Z,9.23
2017-10-31T08:21:54.464Z,10.75
2017-10-31T08:24:23.516Z,12.45
2017-10-31T08:26:53.325Z,11.52
2017-10-31T08:29:23.297Z,13.02
2017-10-31T08:31:52.368Z,8.60
2017-10-31T08:34:21.428Z,15.65
2017-10-31T08:36:51.288Z,8.50
2017-10-31T08:39:20.955Z,9.77
2017-10-31T08:41:50.903Z,10.52
2017-10-31T08:44:20.129Z,9.02
2017-10-31T08:46:49.200Z,11.98
2017-10-31T08:49:19.236Z,10.55
2017-10-31T08:51:48.648Z,11.63
2017-10-31T08:54:17.768Z,10.13
2017-10-31T08:56:47.580Z,7.95
2017-10-31T08:59:17.397Z,7.70
2017-10-31T09:01:47.471Z,8.15
2017-10-31T09:04:16.537Z,15.05
2017-10-31T09:06:45.566Z,6.78
2017-10-31T09:09:16.714Z,11.18
2017-10-31T09:11:45.822Z,8.82
2017-10-31T09:14:16.750Z,8.63
2017-10-31T09:16:45.809Z,9.18
2017-10-31T09:19:14.954Z,13.00
2017-10-31T09:21:44.072Z,10.88
2017-10-31T09:24:14.653Z,10.85
2017-10-31T09:26:44.228Z,9.68
2017-10-31T09:29:13.426Z,10.73
2017-10-31T09:31:42.522Z,11.18
2017-10-31T09:34:12.489Z,9.95
2017-10-31T09:36:42.532Z,8.55
2017-10-31T09:39:12.403Z,10.85
2017-10-31T09:41:42.321Z,10.93
2017-10-31T09:44:11.514Z,13.13
2017-10-31T09:46:40.781Z,14.38
2017-10-31T09:49:09.980Z,11.23
2017-10-31T09:51:40.667Z,10.98
2017-10-31T09:54:09.964Z,12.27
2017-10-31T09:56:40.002Z,11.90
2017-10-31T09:59:10.243Z,11.93
2017-10-31T10:01:39.462Z,8.45
2017-10-31T10:04:08.801Z,10.63
2017-10-31T10:06:38.327Z,12.95
2017-10-31T10:09:08.450Z,8.18
2017-10-31T10:11:38.592Z,8.55
2017-10-31T10:14:08.621Z,10.38
2017-10-31T10:16:37.756Z,11.35
2017-10-31T10:19:06.963Z,9.23
2017-10-31T10:21:36.218Z,8.48
2017-10-31T11:07:45.983Z,6.03
2017-10-31T11:10:15.205Z,10.98
2017-10-31T11:12:45.198Z,6.40
2017-10-31T11:15:17.120Z,7.65
2017-10-31T11:17:47.080Z,7.30
2017-10-31T11:20:17.337Z,9.05
2017-10-31T11:22:47.216Z,6.35
2017-10-31T11:25:16.414Z,8.48
2017-10-31T11:27:45.749Z,12.37
2017-10-31T11:30:15.805Z,6.50
2017-10-31T11:32:45.066Z,7.53
2017-10-31T11:35:14.562Z,6.93
2017-10-31T11:37:45.575Z,7.35
2017-10-31T11:40:15.142Z,13.05
2017-10-31T11:42:44.481Z,8.85
2017-10-31T11:45:13.635Z,9.20
2017-10-31T11:47:42.758Z,11.88
2017-10-31T11:50:12.015Z,9.65
2017-10-31T11:52:41.402Z,7.60
2017-10-31T11:55:13.362Z,6.57
2017-10-31T11:57:43.382Z,9.43
2017-10-31T12:00:12.674Z,7.28
2017-10-31T12:02:42.674Z,9.32
2017-10-31T12:05:12.103Z,8.23
2017-10-31T12:07:43.463Z,6.62
2017-10-31T12:10:12.841Z,6.65
2017-10-31T12:12:42.735Z,8.68
2017-10-31T12:15:12.087Z,6.55
2017-10-31T12:17:41.209Z,11.23
2017-10-31T12:20:11.501Z,10.60
2017-10-31T12:22:41.642Z,7.18
2017-10-31T12:25:12.107Z,6.40
2017-10-31T12:27:41.323Z,9.38
2017-10-31T12:30:10.931Z,6.20
2017-10-31T12:32:41.166Z,7.35
2017-10-31T12:35:11.161Z,10.88
2017-10-31T12:37:41.692Z,7.53
2017-10-31T12:40:11.841Z,8.93
2017-10-31T12:42:42.328Z,6.12
2017-10-31T12:45:11.879Z,6.07
2017-10-31T12:47:42.026Z,6.95
2017-10-31T12:50:11.454Z,7.80
2017-10-31T12:52:40.670Z,10.68
2017-10-31T12:55:10.823Z,9.68
2017-10-31T12:57:41.803Z,8.80
2017-10-31T13:00:11.340Z,7.90
2017-10-31T13:02:42.359Z,11.07
2017-10-31T13:05:11.892Z,9.95
2017-10-31T13:07:42.196Z,8.77
2017-10-31T13:10:12.701Z,6.87
2017-10-31T13:12:42.815Z,8.88
2017-10-31T13:15:13.175Z,7.93
2017-10-31T13:17:43.873Z,16.48
2017-10-31T13:20:13.178Z,9.57
2017-10-31T13:22:43.735Z,9.00
2017-10-31T13:25:14.236Z,9.63
2017-10-31T13:27:44.859Z,9.70
2017-10-31T13:30:16.649Z,9.43
2017-10-31T13:32:48.218Z,9.38
2017-10-31T13:35:19.729Z,9.52
2017-10-31T13:37:51.374Z,8.88
2017-10-31T13:40:23.381Z,9.43
2017-10-31T13:42:54.553Z,9.63
2017-10-31T13:45:24.760Z,9.68
2017-10-31T13:47:55.477Z,11.80
2017-10-31T13:50:25.937Z,11.20
2017-10-31T13:52:55.001Z,9.95
2017-10-31T13:55:24.281Z,13.90
2017-10-31T13:57:53.316Z,9.10
2017-10-31T14:00:26.798Z,10.02
2017-10-31T14:02:58.015Z,15.30
2017-10-31T14:05:28.249Z,22.23
2017-10-31T14:08:06.198Z,10.90
2017-10-31T14:10:37.430Z,15.30
2017-10-31T14:13:06.550Z,13.85
2017-10-31T14:15:35.924Z,17.92
2017-10-31T14:18:07.617Z,16.30
2017-10-31T14:20:38.215Z,13.95
2017-10-31T14:23:08.473Z,16.48
2017-10-31T14:25:38.172Z,19.00
2017-10-31T14:28:07.411Z,14.90
2017-10-31T14:30:37.851Z,16.35
2017-10-31T14:33:07.986Z,14.70
2017-10-31T14:35:37.290Z,17.52
2017-10-31T14:38:06.515Z,15.77
2017-10-31T14:40:39.436Z,18.60
2017-10-31T14:43:11.508Z,11.75
2017-10-31T14:45:42.135Z,15.38
2017-10-31T14:48:12.183Z,13.35
2017-10-31T14:50:41.739Z,17.02
2017-10-31T14:53:11.213Z,17.08
2017-10-31T14:55:40.584Z,19.85
2017-10-31T14:58:11.587Z,16.33
2017-10-31T15:00:41.136Z,14.55
2017-10-31T15:03:11.180Z,13.75
2017-10-31T15:05:40.674Z,17.15
2017-10-31T15:08:09.807Z,15.40
2017-10-31T15:10:40.156Z,21.25
2017-10-31T15:13:12.196Z,17.67
2017-10-31T15:15:42.139Z,18.20
2017-10-31T15:18:12.152Z,15.30
2017-10-31T15:20:44.384Z,16.90
2017-10-31T15:23:13.661Z,17.17
2017-10-31T15:25:43.593Z,18.02
2017-10-31T15:28:13.011Z,18.60
2017-10-31T15:33:25.723Z,18.02
2017-10-31T15:36:26.461Z,20.30
2017-10-31T15:38:56.418Z,15.43
2017-10-31T15:41:26.382Z,19.80
2017-10-31T15:44:02.874Z,22.77
2017-10-31T15:46:32.051Z,21.05
2017-10-31T15:49:01.275Z,21.05
2017-10-31T15:51:30.360Z,18.80
2017-10-31T15:53:59.418Z,19.77
2017-10-31T15:56:28.599Z,22.77
2017-10-31T15:58:58.490Z,18.00
2017-10-31T16:01:28.071Z,25.62
2017-10-31T16:03:57.191Z,18.58
2017-10-31T16:06:27.975Z,21.00
2017-10-31T16:08:57.157Z,18.58
2017-10-31T16:11:27.331Z,19.35
2017-10-31T16:13:56.687Z,18.83
2017-10-31T16:16:26.446Z,17.92
2017-10-31T16:18:57.575Z,23.62
2017-10-31T16:21:27.228Z,16.55
2017-10-31T16:23:58.574Z,18.80
2017-10-31T16:26:28.610Z,17.58
2017-10-31T16:28:58.693Z,20.27
2017-10-31T16:31:28.733Z,17.00
2017-10-31T16:33:58.747Z,18.25
2017-10-31T16:36:28.795Z,20.65
2017-10-31T16:38:57.849Z,20.10
2017-10-31T16:41:27.119Z,22.00
2017-10-31T16:43:56.344Z,19.08
2017-10-31T16:46:26.362Z,20.50
2017-10-31T16:48:55.765Z,17.85
2017-10-31T16:51:25.006Z,21.80
2017-10-31T16:53:54.120Z,16.42
2017-10-31T16:56:23.576Z,17.23
2017-10-31T16:58:52.764Z,17.35
2017-10-31T17:01:22.493Z,17.73
2017-10-31T17:03:51.678Z,19.92
2017-10-31T17:06:22.579Z,22.55
2017-10-31T17:08:51.838Z,18.52
2017-10-31T17:11:26.122Z,19.33
2017-10-31T17:13:56.679Z,21.52
2017-10-31T17:16:27.005Z,18.83
2017-10-31T17:19:00.173Z,17.62
2017-10-31T17:21:32.856Z,21.02
2017-10-31T17:24:04.429Z,22.92
2017-10-31T17:26:37.107Z,17.50
2017-10-31T17:29:06.295Z,17.70
2017-10-31T17:31:36.266Z,22.02
2017-10-31T17:34:10.736Z,20.92
2017-10-31T17:36:41.259Z,19.40
2017-10-31T17:39:11.898Z,25.35
2017-10-31T17:41:42.177Z,20.52
2017-10-31T17:44:12.650Z,19.58
2017-10-31T17:46:47.736Z,17.30
2017-10-31T17:49:17.703Z,23.17
2017-10-31T17:51:46.921Z,16.52
2017-10-31T17:54:16.150Z,18.37
2017-10-31T17:56:45.314Z,19.25
2017-10-31T17:59:14.537Z,15.30
2017-10-31T18:01:43.728Z,17.92
2017-10-31T18:04:13.008Z,18.02
2017-10-31T18:06:42.326Z,21.48
2017-10-31T18:09:14.387Z,14.13
2017-10-31T18:11:44.827Z,16.85
2017-10-31T18:14:16.037Z,17.35
2017-10-31T18:16:47.220Z,13.10
2017-10-31T18:19:16.616Z,18.48
2017-10-31T18:21:45.797Z,17.12
2017-10-31T18:24:15.135Z,14.87
2017-10-31T18:26:44.369Z,20.27
2017-10-31T18:29:13.769Z,17.00
2017-10-31T18:31:45.207Z,12.27
2017-10-31T18:34:14.721Z,13.18
2017-10-31T18:36:44.171Z,13.88
2017-10-31T18:39:15.172Z,13.10
2017-10-31T18:41:46.488Z,13.30
2017-10-31T18:44:16.869Z,15.23
2017-10-31T18:46:46.896Z,14.00
2017-10-31T18:49:19.070Z,10.77
2017-10-31T18:51:48.432Z,16.30
2017-10-31T18:54:19.124Z,16.98
2017-10-31T18:56:49.516Z,11.75
2017-10-31T18:59:22.241Z,14.27
2017-10-31T19:01:53.674Z,13.55
2017-10-31T19:04:24.032Z,17.23
2017-10-31T19:06:54.144Z,15.15
2017-10-31T19:09:24.306Z,10.48
2017-10-31T19:11:54.757Z,13.57
2017-10-31T19:14:26.251Z,14.27
2017-10-31T19:16:57.425Z,13.40
2017-10-31T19:19:33.980Z,13.23
2017-10-31T19:22:20.671Z,11.98
2017-10-31T19:25:03.966Z,13.95
2017-10-31T19:27:41.174Z,10.82
2017-10-31T19:30:11.753Z,11.30
2017-10-31T19:32:44.763Z,16.80
2017-10-31T19:38:01.538Z,14.48
2017-10-31T19:40:35.028Z,15.57
2017-10-31T19:43:05.393Z,8.60
2017-10-31T19:45:37.363Z,13.57
2017-10-31T19:48:08.853Z,13.82
2017-10-31T19:50:41.053Z,10.18
2017-10-31T19:53:12.198Z,11.18
2017-10-31T19:55:47.278Z,13.65
2017-10-31T19:58:22.991Z,10.85
2017-10-31T20:00:54.468Z,11.82
2017-10-31T20:03:24.845Z,9.77
2017-10-31T20:05:54.616Z,12.52
2017-10-31T20:08:27.519Z,13.20
2017-10-31T20:10:58.707Z,16.12
2017-10-31T20:13:30.316Z,15.32
2017-10-31T20:16:02.243Z,12.50
2017-10-31T20:18:31.991Z,15.05
2017-10-31T20:21:02.407Z,16.87
2017-10-31T20:23:31.641Z,19.33
2017-10-31T20:26:01.109Z,14.70
2017-10-31T20:28:30.974Z,15.65
2017-10-31T20:31:02.126Z,18.05
2017-10-31T20:33:32.952Z,17.65
2017-10-31T20:36:02.573Z,17.23
2017-10-31T20:38:34.935Z,18.45
2017-10-31T20:41:05.301Z,16.65
2017-10-31T20:43:35.512Z,19.27
2017-10-31T20:46:04.946Z,14.25
2017-10-31T20:48:35.488Z,17.92
2017-10-31T20:51:09.461Z,18.33
2017-10-31T20:53:40.563Z,23.62
2017-10-31T20:56:10.383Z,18.05
2017-10-31T20:58:40.540Z,17.12
2017-10-31T21:01:10.134Z,18.65
2017-10-31T21:03:40.983Z,15.23
2017-10-31T21:06:10.185Z,16.08
2017-10-31T21:08:39.535Z,16.98
2017-10-31T21:11:09.378Z,14.75
2017-10-31T21:13:39.350Z,12.35
2017-10-31T21:16:08.916Z,16.20
2017-10-31T21:18:40.022Z,13.93
2017-10-31T21:21:09.389Z,15.60
2017-10-31T21:23:39.401Z,13.68
2017-10-31T21:26:09.801Z,13.15
2017-10-31T21:28:38.944Z,14.90
2017-10-31T21:31:09.892Z,14.73
2017-10-31T21:33:39.569Z,13.00
2017-10-31T21:36:09.659Z,12.07
2017-10-31T21:38:39.361Z,14.57
2017-10-31T21:41:08.705Z,15.55
2017-10-31T21:43:38.896Z,13.62
2017-10-31T21:46:08.097Z,13.88
2017-10-31T21:48:37.237Z,10.90
2017-10-31T21:51:06.880Z,15.70
2017-10-31T21:53:35.987Z,13.07
2017-10-31T21:56:06.067Z,14.18
2017-10-31T21:58:36.062Z,13.65
2017-10-31T22:01:06.289Z,14.45
2017-10-31T22:03:35.947Z,13.30
2017-10-31T22:06:05.051Z,13.30
2017-10-31T22:08:35.831Z,10.35
2017-10-31T22:11:05.018Z,16.77
2017-10-31T22:13:35.537Z,15.18
2017-10-31T22:16:05.448Z,15.73
2017-10-31T22:18:35.916Z,15.50
2017-10-31T22:21:05.082Z,15.43
2017-10-31T22:23:35.305Z,15.95
2017-10-31T22:26:05.147Z,20.15
2017-10-31T22:28:34.471Z,18.10
2017-10-31T22:31:03.722Z,19.98
2017-10-31T22:33:36.787Z,20.00
2017-10-31T22:36:06.665Z,17.50
2017-10-31T22:38:35.935Z,18.05
2017-10-31T22:41:05.837Z,18.08
2017-10-31T22:43:35.980Z,24.02
2017-10-31T22:46:05.297Z,18.92
2017-10-31T22:48:35.013Z,21.65
2017-10-31T22:51:04.100Z,19.58
2017-10-31T22:53:33.612Z,20.33
2017-10-31T22:56:02.636Z,20.23
2017-10-31T22:58:31.822Z,21.30
2017-10-31T23:01:01.864Z,22.35
2017-10-31T23:03:31.755Z,18.98
2017-10-31T23:06:00.826Z,21.70
2017-10-31T23:08:30.404Z,19.92
2017-10-31T23:10:59.437Z,21.73
2017-10-31T23:13:29.302Z,26.20
2017-10-31T23:15:59.554Z,20.90
2017-10-31T23:18:28.762Z,23.83
2017-10-31T23:20:57.783Z,26.48
2017-10-31T23:23:26.972Z,20.60
2017-10-31T23:26:06.137Z,22.30
2017-10-31T23:28:35.722Z,20.98
2017-10-31T23:31:06.220Z,21.70
2017-10-31T23:33:35.810Z,20.23
2017-10-31T23:36:04.963Z,20.48
2017-10-31T23:38:34.028Z,17.50
2017-10-31T23:41:04.089Z,18.08
2017-10-31T23:43:33.973Z,15.82
2017-10-31T23:46:03.223Z,21.02
2017-10-31T23:51:25.979Z,24.27
2017-10-31T23:56:48.063Z,20.23
2017-10-31T23:59:19.362Z,15.68
